Time;durP1;ratioP1;P1;durP2;ratioP2;P2;SDS_P1;SDS_P2;PMS_P1;PMS_P2;Temp;Humidity;BMP_temperature;BMP_pressure;BME280_temperature;BME280_humidity;BME280_pressure;Samples;Min_cycle;Max_cycle;Signal;HPM_P1;HPM_P2
2021/12/22 00:02:02;;;;;;;12.35;8.82;;;;;;;;;;6213736;23;20096;-88
2021/12/22 00:04:30;;;;;;;13.85;10.13;;;;;;;;;;6213329;23;20100;-89
2021/12/22 00:06:55;;;;;;;15.88;9.85;;;;;;;;;;6213396;23;20441;-88
2021/12/22 00:09:21;;;;;;;14.98;10.45;;;;;;;;;;6213680;23;20017;-90
2021/12/22 00:11:48;;;;;;;13.48;9.65;;;;;;;;;;6213389;23;20005;-87
2021/12/22 00:14:14;;;;;;;14.85;9.75;;;;;;;;;;6213321;23;20007;-90
2021/12/22 00:16:39;;;;;;;12.70;8.63;;;;;;;;;;6213102;23;20057;-90
2021/12/22 00:19:05;;;;;;;12.65;8.88;;;;;;;;;;6189631;23;20084;-91
2021/12/22 00:21:30;;;;;;;13.85;9.35;;;;;;;;;;6189872;23;20071;-90
2021/12/22 00:23:56;;;;;;;12.70;8.55;;;;;;;;;;6189868;23;20078;-89
2021/12/22 00:26:22;;;;;;;13.38;8.88;;;;;;;;;;6189769;23;20039;-90
2021/12/22 00:28:48;;;;;;;13.85;8.52;;;;;;;;;;6212626;23;20455;-89
2021/12/22 00:31:15;;;;;;;14.90;8.52;;;;;;;;;;6188229;23;20063;-89
2021/12/22 00:33:50;;;;;;;10.32;8.63;;;;;;;;;;6211490;23;20005;-87
2021/12/22 00:36:19;;;;;;;14.20;9.70;;;;;;;;;;6188137;23;20072;-90
2021/12/22 00:38:45;;;;;;;14.63;9.55;;;;;;;;;;6211697;23;20005;-89
2021/12/22 00:41:11;;;;;;;11.90;7.75;;;;;;;;;;6211625;23;20005;-90
2021/12/22 00:43:37;;;;;;;12.43;7.40;;;;;;;;;;6187789;23;20083;-90
2021/12/22 00:46:02;;;;;;;10.93;7.60;;;;;;;;;;6188269;23;20440;-89
2021/12/22 00:48:28;;;;;;;13.32;8.52;;;;;;;;;;6212280;23;20494;-89
2021/12/22 00:50:53;;;;;;;12.20;8.45;;;;;;;;;;6212257;23;20475;-87
2021/12/22 00:53:19;;;;;;;13.63;8.52;;;;;;;;;;6212326;23;20009;-89
2021/12/22 00:55:45;;;;;;;14.00;9.18;;;;;;;;;;6212232;23;20028;-89
2021/12/22 00:58:10;;;;;;;13.27;8.40;;;;;;;;;;6187901;23;20417;-90
2021/12/22 01:00:36;;;;;;;13.20;8.90;;;;;;;;;;6211152;23;20333;-90
2021/12/22 01:03:04;;;;;;;12.35;8.93;;;;;;;;;;6211367;23;20340;-89
2021/12/22 01:05:30;;;;;;;13.95;9.90;;;;;;;;;;6187794;23;20055;-89
2021/12/22 01:07:55;;;;;;;15.00;9.90;;;;;;;;;;6188124;23;20001;-90
2021/12/22 01:10:25;;;;;;;15.73;11.05;;;;;;;;;;6211267;23;20009;-90
2021/12/22 01:12:56;;;;;;;17.20;10.80;;;;;;;;;;6211426;23;20005;-89
2021/12/22 01:15:22;;;;;;;16.83;9.68;;;;;;;;;;6211292;23;20015;-90
2021/12/22 01:17:56;;;;;;;13.20;9.00;;;;;;;;;;6187555;23;20013;-89
2021/12/22 01:20:27;;;;;;;14.90;9.45;;;;;;;;;;6213465;23;20329;-88
2021/12/22 01:23:01;;;;;;;14.57;9.30;;;;;;;;;;6188035;23;20444;-88
2021/12/22 01:25:27;;;;;;;14.07;8.80;;;;;;;;;;6188129;23;20036;-91
2021/12/22 01:27:53;;;;;;;15.48;9.50;;;;;;;;;;6211204;23;20005;-89
2021/12/22 01:30:23;;;;;;;14.90;9.32;;;;;;;;;;6212503;23;20036;-91
2021/12/22 01:32:51;;;;;;;13.65;9.27;;;;;;;;;;6211894;23;20439;-90
2021/12/22 01:35:21;;;;;;;12.60;9.02;;;;;;;;;;6211522;23;20347;-89
2021/12/22 01:37:47;;;;;;;14.18;9.07;;;;;;;;;;6211509;23;20016;-87
2021/12/22 01:40:15;;;;;;;13.38;8.90;;;;;;;;;;6212030;23;20005;-89
2021/12/22 01:42:41;;;;;;;14.85;9.40;;;;;;;;;;6211349;23;20064;-90
2021/12/22 01:45:48;;;;;;;13.82;9.10;;;;;;;;;;6211812;23;20326;-90
2021/12/22 01:51:08;;;;;;;13.65;8.90;;;;;;;;;;6187398;23;20386;-88
2021/12/22 01:53:44;;;;;;;10.23;7.13;;;;;;;;;;6210956;23;20352;-87
2021/12/22 01:56:28;;;;;;;9.50;7.15;;;;;;;;;;6210834;23;20012;-90
2021/12/22 01:58:57;;;;;;;10.23;7.80;;;;;;;;;;6211068;23;20016;-88
2021/12/22 02:01:24;;;;;;;10.68;7.03;;;;;;;;;;6210967;23;20079;-89
2021/12/22 02:03:51;;;;;;;10.43;7.00;;;;;;;;;;6186839;23;20001;-88
2021/12/22 02:06:19;;;;;;;12.10;8.02;;;;;;;;;;6185561;23;20089;-87
2021/12/22 02:08:45;;;;;;;14.07;9.05;;;;;;;;;;6186929;23;20005;-87
2021/12/22 02:11:13;;;;;;;12.55;8.38;;;;;;;;;;6210548;23;20012;-87
2021/12/22 02:13:42;;;;;;;11.98;8.70;;;;;;;;;;6210611;23;20091;-88
2021/12/22 02:16:13;;;;;;;10.60;8.52;;;;;;;;;;6210683;23;20005;-86
2021/12/22 02:18:39;;;;;;;;;;;;;;;;;;6187205;23;20035;-87
2021/12/22 02:21:06;;;;;;;13.70;8.40;;;;;;;;;;6187544;23;19932;-88
2021/12/22 02:23:33;;;;;;;15.13;8.32;;;;;;;;;;6214363;23;20425;-88
2021/12/22 02:26:14;;;;;;;10.60;7.82;;;;;;;;;;6190958;23;20373;-87
2021/12/22 02:28:44;;;;;;;11.93;8.20;;;;;;;;;;6210736;23;20084;-88
2021/12/22 02:31:14;;;;;;;18.13;9.80;;;;;;;;;;6210511;23;20001;-90
2021/12/22 02:33:42;;;;;;;11.43;7.85;;;;;;;;;;6186986;23;20004;-89
2021/12/22 02:36:11;;;;;;;16.13;8.13;;;;;;;;;;6210822;23;20034;-87
2021/12/22 02:38:42;;;;;;;12.52;7.43;;;;;;;;;;6210233;23;20036;-87
2021/12/22 02:41:12;;;;;;;11.45;7.50;;;;;;;;;;6210248;23;20060;-90
2021/12/22 02:43:50;;;;;;;11.77;7.63;;;;;;;;;;6185381;23;20013;-88
2021/12/22 02:46:23;;;;;;;13.23;8.45;;;;;;;;;;6210160;23;20020;-90
2021/12/22 02:48:49;;;;;;;13.00;8.20;;;;;;;;;;6185155;23;20009;-88
2021/12/22 02:51:15;;;;;;;12.75;8.02;;;;;;;;;;6186396;23;20329;-91
2021/12/22 02:54:04;;;;;;;13.80;8.38;;;;;;;;;;6209945;23;20012;-90
2021/12/22 03:04:10;;;;;;;11.43;8.07;;;;;;;;;;6194641;23;20306;-90
2021/12/22 03:06:39;;;;;;;12.30;8.20;;;;;;;;;;6185293;23;20035;-88
2021/12/22 03:09:15;;;;;;;11.35;7.88;;;;;;;;;;6210266;23;20044;-89
2021/12/22 03:11:41;;;;;;;12.27;7.97;;;;;;;;;;6210094;23;20496;-88
2021/12/22 03:14:06;;;;;;;16.15;9.25;;;;;;;;;;6186726;23;20087;-87
2021/12/22 03:16:32;;;;;;;13.18;8.65;;;;;;;;;;6186233;23;20140;-88
2021/12/22 03:18:57;;;;;;;13.15;8.45;;;;;;;;;;6186243;23;20071;-89
2021/12/22 03:21:23;;;;;;;14.77;8.43;;;;;;;;;;6209961;23;20032;-87
2021/12/22 03:23:51;;;;;;;11.50;7.43;;;;;;;;;;6209760;23;20013;-87
2021/12/22 03:26:18;;;;;;;11.05;7.20;;;;;;;;;;6186107;23;20025;-88
2021/12/22 03:28:45;;;;;;;13.10;7.80;;;;;;;;;;6186397;23;20109;-87
2021/12/22 03:31:11;;;;;;;10.73;7.70;;;;;;;;;;6209829;23;20118;-88
2021/12/22 03:33:36;;;;;;;11.70;7.82;;;;;;;;;;6209733;23;20095;-88
2021/12/22 03:36:03;;;;;;;14.55;8.43;;;;;;;;;;6184546;23;20002;-88
2021/12/22 03:38:31;;;;;;;12.20;8.35;;;;;;;;;;6209984;23;20080;-91
2021/12/22 03:40:56;;;;;;;11.85;7.68;;;;;;;;;;6209894;23;20009;-91
2021/12/22 03:43:22;;;;;;;12.85;8.18;;;;;;;;;;6209788;23;20087;-89
2021/12/22 03:45:47;;;;;;;14.52;8.65;;;;;;;;;;6186460;23;20008;-88
2021/12/22 03:48:16;;;;;;;11.75;7.60;;;;;;;;;;6209866;23;20001;-90
2021/12/22 03:50:41;;;;;;;12.45;7.88;;;;;;;;;;6186388;23;20001;-87
2021/12/22 03:53:07;;;;;;;10.05;8.27;;;;;;;;;;6210092;23;20387;-91
2021/12/22 03:55:32;;;;;;;11.13;8.55;;;;;;;;;;6209676;23;20320;-88
2021/12/22 03:57:58;;;;;;;13.40;8.70;;;;;;;;;;6186473;23;20004;-87
2021/12/22 04:00:23;;;;;;;12.50;8.32;;;;;;;;;;6186563;23;20001;-91
2021/12/22 04:02:49;;;;;;;11.50;7.90;;;;;;;;;;6209594;23;20144;-89
2021/12/22 04:05:16;;;;;;;12.27;8.13;;;;;;;;;;6211405;23;20027;-91
2021/12/22 04:07:42;;;;;;;13.15;8.05;;;;;;;;;;6211814;23;20036;-89
2021/12/22 04:10:19;;;;;;;12.38;8.32;;;;;;;;;;6188117;23;20005;-89
2021/12/22 04:12:50;;;;;;;14.52;8.77;;;;;;;;;;6211556;23;20005;-88
2021/12/22 04:15:16;;;;;;;12.23;8.25;;;;;;;;;;6188129;23;20573;-86
2021/12/22 04:17:41;;;;;;;12.90;8.05;;;;;;;;;;6186530;23;20078;-89
2021/12/22 04:20:07;;;;;;;13.80;8.45;;;;;;;;;;6188033;23;20333;-89
2021/12/22 04:22:33;;;;;;;12.35;8.38;;;;;;;;;;6187840;23;20053;-90
2021/12/22 04:24:58;;;;;;;12.05;8.13;;;;;;;;;;6211160;23;20036;-89
2021/12/22 04:27:24;;;;;;;13.43;7.60;;;;;;;;;;6211478;23;20101;-88
2021/12/22 04:29:49;;;;;;;11.75;7.85;;;;;;;;;;6211192;23;20005;-91
2021/12/22 04:32:14;;;;;;;11.27;7.80;;;;;;;;;;6211728;23;20429;-89
2021/12/22 04:34:40;;;;;;;10.95;8.07;;;;;;;;;;6211885;23;20001;-90
2021/12/22 04:37:05;;;;;;;10.43;7.45;;;;;;;;;;6211343;23;20009;-89
2021/12/22 04:39:33;;;;;;;12.00;7.55;;;;;;;;;;6211466;23;20005;-89
2021/12/22 04:42:00;;;;;;;12.77;8.25;;;;;;;;;;6187740;23;20033;-89
2021/12/22 04:44:25;;;;;;;12.20;7.93;;;;;;;;;;6211424;23;20076;-90
2021/12/22 04:46:51;;;;;;;14.23;8.30;;;;;;;;;;6212027;23;20413;-89
2021/12/22 04:49:16;;;;;;;12.55;7.45;;;;;;;;;;6186229;23;20008;-90
2021/12/22 04:51:49;;;;;;;13.10;7.78;;;;;;;;;;6187592;23;20027;-89
2021/12/22 04:56:40;;;;;;;11.40;7.60;;;;;;;;;;6198160;23;20005;-89
2021/12/22 04:59:06;;;;;;;9.18;7.43;;;;;;;;;;6211248;23;20004;-89
2021/12/22 05:01:31;;;;;;;10.35;7.28;;;;;;;;;;6211079;23;20005;-88
2021/12/22 05:03:56;;;;;;;11.68;7.53;;;;;;;;;;6211005;23;20047;-89
2021/12/22 05:06:24;;;;;;;12.10;7.68;;;;;;;;;;6185909;23;20016;-87
2021/12/22 05:08:51;;;;;;;9.88;6.90;;;;;;;;;;6211213;23;20036;-90
2021/12/22 05:11:16;;;;;;;10.45;7.30;;;;;;;;;;6211265;23;20009;-88
2021/12/22 05:13:41;;;;;;;10.77;7.20;;;;;;;;;;6187517;23;20016;-89
2021/12/22 05:16:07;;;;;;;8.82;6.72;;;;;;;;;;6187471;23;20068;-87
2021/12/22 05:19:15;;;;;;;13.48;7.18;;;;;;;;;;6211027;23;20318;-89
2021/12/22 05:21:22;;;;;;;11.18;7.10;;;;;;;;;;6181004;23;20032;-88
2021/12/22 05:23:53;;;;;;;10.32;6.63;;;;;;;;;;6211478;23;20013;-89
2021/12/22 05:26:18;;;;;;;12.73;7.50;;;;;;;;;;6187569;23;20413;-87
2021/12/22 05:28:44;;;;;;;11.02;7.10;;;;;;;;;;6210791;23;20008;-88
2021/12/22 05:31:10;;;;;;;11.18;6.97;;;;;;;;;;6210751;23;20395;-87
2021/12/22 05:33:35;;;;;;;11.30;6.70;;;;;;;;;;6210322;23;20013;-86
2021/12/22 05:36:01;;;;;;;13.63;8.23;;;;;;;;;;6210599;23;20429;-86
2021/12/22 05:38:27;;;;;;;23.90;11.05;;;;;;;;;;6210493;23;20396;-86
2021/12/22 05:40:52;;;;;;;13.60;7.68;;;;;;;;;;6185171;23;20005;-87
2021/12/22 05:43:17;;;;;;;15.63;8.48;;;;;;;;;;6210270;23;20016;-86
2021/12/22 05:45:43;;;;;;;16.30;7.78;;;;;;;;;;6210276;23;20005;-87
2021/12/22 05:48:09;;;;;;;17.00;8.18;;;;;;;;;;6186669;23;20001;-86
2021/12/22 05:50:34;;;;;;;11.48;8.20;;;;;;;;;;6210637;23;20033;-88
2021/12/22 05:53:00;;;;;;;12.48;6.65;;;;;;;;;;6186860;23;20072;-87
2021/12/22 05:55:26;;;;;;;9.75;6.85;;;;;;;;;;6187072;23;20031;-87
2021/12/22 05:57:53;;;;;;;7.55;6.03;;;;;;;;;;6185361;23;20005;-87
2021/12/22 06:00:18;;;;;;;9.73;6.68;;;;;;;;;;6210572;23;20004;-86
2021/12/22 06:02:44;;;;;;;9.98;7.00;;;;;;;;;;6210193;23;20012;-87
2021/12/22 06:05:10;;;;;;;9.63;6.60;;;;;;;;;;6186655;23;20005;-85
2021/12/22 06:07:35;;;;;;;13.95;7.10;;;;;;;;;;6186783;23;20080;-87
2021/12/22 06:10:01;;;;;;;10.43;6.88;;;;;;;;;;6210022;23;20055;-86
2021/12/22 06:12:26;;;;;;;15.13;7.38;;;;;;;;;;6186515;23;20036;-87
2021/12/22 06:14:52;;;;;;;8.27;6.18;;;;;;;;;;6210324;23;20005;-89
2021/12/22 06:17:17;;;;;;;12.32;6.43;;;;;;;;;;6186821;23;20356;-85
2021/12/22 06:19:43;;;;;;;11.23;7.50;;;;;;;;;;6186498;23;20009;-87
2021/12/22 06:22:09;;;;;;;12.48;7.13;;;;;;;;;;6186357;23;20005;-86
2021/12/22 06:24:34;;;;;;;11.32;6.97;;;;;;;;;;6209885;23;20372;-85
2021/12/22 06:26:59;;;;;;;13.70;6.97;;;;;;;;;;6209467;23;20001;-85
2021/12/22 06:29:25;;;;;;;10.05;6.68;;;;;;;;;;6186436;23;20001;-91
2021/12/22 06:31:51;;;;;;;11.15;6.63;;;;;;;;;;6187199;23;20012;-86
2021/12/22 06:34:17;;;;;;;8.80;6.72;;;;;;;;;;6219697;22;20020;-86
2021/12/22 06:36:42;;;;;;;9.90;6.70;;;;;;;;;;6246404;23;19996;-86
2021/12/22 06:39:08;;;;;;;8.80;6.57;;;;;;;;;;6246866;23;20087;-86
2021/12/22 06:41:34;;;;;;;11.85;6.65;;;;;;;;;;6246697;23;20031;-85
2021/12/22 06:43:59;;;;;;;9.18;6.55;;;;;;;;;;6246420;23;20481;-86
2021/12/22 06:46:25;;;;;;;11.93;7.43;;;;;;;;;;6246580;23;20007;-85
2021/12/22 06:48:50;;;;;;;10.25;7.10;;;;;;;;;;6219687;23;20008;-86
2021/12/22 06:51:16;;;;;;;14.80;7.85;;;;;;;;;;6220334;23;20331;-88
2021/12/22 06:53:41;;;;;;;14.38;8.95;;;;;;;;;;6247068;23;20099;-87
2021/12/22 06:56:07;;;;;;;19.33;7.03;;;;;;;;;;6247992;23;20133;-89
2021/12/22 06:58:32;;;;;;;15.30;7.97;;;;;;;;;;6220045;23;20043;-86
2021/12/22 07:00:59;;;;;;;12.73;7.15;;;;;;;;;;6246421;23;20004;-86
2021/12/22 07:03:25;;;;;;;12.40;6.63;;;;;;;;;;6219170;23;20051;-86
2021/12/22 10:44:35;;;;;;;11.13;9.48;;;;;;;;;;6192318;23;20486;-83
2021/12/22 10:47:22;;;;;;;10.45;9.45;;;;;;;;;;6246688;23;20013;-82
2021/12/22 10:50:06;;;;;;;11.65;10.10;;;;;;;;;;6220403;23;20015;-81
2021/12/22 10:52:32;;;;;;;13.15;10.10;;;;;;;;;;6246679;23;20330;-80
2021/12/22 10:55:09;;;;;;;12.07;10.77;;;;;;;;;;6246536;23;20434;-80
2021/12/22 10:57:40;;;;;;;12.75;10.38;;;;;;;;;;6219711;23;20008;-81
2021/12/22 11:00:25;;;;;;;11.90;9.77;;;;;;;;;;6219633;23;19997;-81
2021/12/22 11:03:06;;;;;;;13.05;9.40;;;;;;;;;;6219649;23;20012;-81
2021/12/22 11:05:48;;;;;;;14.45;9.35;;;;;;;;;;6246300;23;20004;-83
2021/12/22 11:08:21;;;;;;;11.75;8.98;;;;;;;;;;6219660;23;20019;-81
2021/12/22 11:10:49;;;;;;;10.75;9.13;;;;;;;;;;6246196;23;20011;-82
2021/12/22 11:13:19;;;;;;;11.23;9.32;;;;;;;;;;6246314;23;20007;-80
2021/12/22 11:15:45;;;;;;;12.27;8.98;;;;;;;;;;6246316;23;20039;-81
2021/12/22 11:18:34;;;;;;;11.15;9.50;;;;;;;;;;6246799;23;20000;-81
2021/12/22 11:21:22;;;;;;;10.00;9.00;;;;;;;;;;6245945;23;20070;-82
2021/12/22 11:23:48;;;;;;;9.65;8.75;;;;;;;;;;6246391;23;20370;-81
2021/12/22 11:26:14;;;;;;;9.27;8.18;;;;;;;;;;6246264;23;20092;-80
2021/12/22 11:28:42;;;;;;;11.38;8.30;;;;;;;;;;6219402;23;20000;-81
2021/12/22 11:31:10;;;;;;;9.95;8.20;;;;;;;;;;6246640;23;20006;-81
2021/12/22 11:33:39;;;;;;;12.80;9.65;;;;;;;;;;6246934;23;20016;-80
2021/12/22 11:36:07;;;;;;;13.60;8.73;;;;;;;;;;6246442;23;20012;-80
2021/12/22 11:38:33;;;;;;;10.55;8.77;;;;;;;;;;6246267;23;20376;-83
2021/12/22 11:41:10;;;;;;;10.10;8.40;;;;;;;;;;6246215;23;20023;-84
2021/12/22 11:43:38;;;;;;;10.80;9.27;;;;;;;;;;6246358;23;20016;-85
2021/12/22 11:46:05;;;;;;;10.02;7.97;;;;;;;;;;6219379;23;20030;-82
2021/12/22 11:48:30;;;;;;;11.90;8.70;;;;;;;;;;6246461;23;20028;-81
2021/12/22 11:50:56;;;;;;;9.68;8.52;;;;;;;;;;6246622;23;20047;-85
2021/12/22 11:53:22;;;;;;;13.68;9.30;;;;;;;;;;6219396;23;20016;-85
2021/12/22 11:55:55;;;;;;;10.07;8.00;;;;;;;;;;6246720;23;20000;-85
2021/12/22 11:58:24;;;;;;;10.35;7.60;;;;;;;;;;6246407;23;20023;-80
2021/12/22 12:00:50;;;;;;;9.55;7.63;;;;;;;;;;6246100;23;20000;-80
2021/12/22 12:03:20;;;;;;;9.45;7.90;;;;;;;;;;6246324;23;20008;-80
2021/12/22 12:06:03;;;;;;;8.40;7.07;;;;;;;;;;6245905;23;20481;-80
2021/12/22 12:08:38;;;;;;;10.57;8.00;;;;;;;;;;6246871;23;20023;-80
2021/12/22 12:11:12;;;;;;;9.55;8.00;;;;;;;;;;6219766;23;20375;-80
2021/12/22 12:22:08;;;;;;;8.57;6.75;;;;;;;;;;6245963;23;20066;-80
2021/12/22 12:24:38;;;;;;;9.98;7.28;;;;;;;;;;6245947;23;20001;-80
2021/12/22 12:27:31;;;;;;;9.38;7.40;;;;;;;;;;6247913;23;20090;-79
2021/12/22 12:29:56;;;;;;;9.32;7.38;;;;;;;;;;6248122;23;20028;-79
2021/12/22 12:32:40;;;;;;;10.63;7.43;;;;;;;;;;6248460;23;20001;-80
2021/12/22 12:35:17;;;;;;;9.32;6.32;;;;;;;;;;6247821;23;20058;-79
2021/12/22 12:38:06;;;;;;;7.78;5.25;;;;;;;;;;6221348;23;20313;-79
2021/12/22 12:43:40;;;;;;;8.15;6.30;;;;;;;;;;6247626;23;20090;-80
2021/12/22 12:46:28;;;;;;;7.68;5.63;;;;;;;;;;6247830;23;20012;-80
2021/12/22 12:49:08;;;;;;;7.40;5.53;;;;;;;;;;6247279;23;20000;-79
2021/12/22 17:46:15;;;;;;;14.27;10.38;;;;;;;;;;6183370;23;20160;-83
2021/12/22 17:48:40;;;;;;;10.50;7.20;;;;;;;;;;6186999;23;20448;-82
2021/12/22 17:51:06;;;;;;;10.05;6.90;;;;;;;;;;6186829;23;20009;-81
2021/12/22 17:53:31;;;;;;;7.43;5.40;;;;;;;;;;6186642;23;20001;-85
2021/12/22 17:55:57;;;;;;;9.00;5.57;;;;;;;;;;6186478;23;20012;-82
2021/12/22 17:58:22;;;;;;;8.02;5.95;;;;;;;;;;6186905;23;20012;-84
2021/12/22 18:00:49;;;;;;;13.40;6.75;;;;;;;;;;6186865;23;20084;-80
2021/12/22 18:03:16;;;;;;;11.57;6.88;;;;;;;;;;6186265;23;20005;-81
2021/12/22 18:05:43;;;;;;;10.05;7.10;;;;;;;;;;6186770;23;20012;-81
2021/12/22 18:08:11;;;;;;;10.52;6.68;;;;;;;;;;6187174;23;20008;-87
2021/12/22 18:10:37;;;;;;;14.57;7.65;;;;;;;;;;6187480;23;20005;-86
2021/12/22 18:13:02;;;;;;;10.98;8.23;;;;;;;;;;6186517;23;20044;-81
2021/12/22 18:15:28;;;;;;;12.32;6.90;;;;;;;;;;6186612;23;20005;-84
2021/12/22 18:17:54;;;;;;;13.40;7.13;;;;;;;;;;6186685;23;20010;-81
2021/12/22 18:20:25;;;;;;;11.45;6.97;;;;;;;;;;6186572;23;20001;-81
2021/12/22 18:22:53;;;;;;;12.63;7.53;;;;;;;;;;6185580;23;20005;-80
2021/12/22 18:25:18;;;;;;;12.77;7.75;;;;;;;;;;6186178;23;20079;-83
2021/12/22 18:27:43;;;;;;;16.52;8.63;;;;;;;;;;6186341;23;20405;-80
2021/12/22 18:30:11;;;;;;;15.23;8.48;;;;;;;;;;6186302;23;20005;-83
2021/12/22 18:32:38;;;;;;;12.45;8.23;;;;;;;;;;6209786;23;20478;-80
2021/12/22 18:35:09;;;;;;;11.90;8.75;;;;;;;;;;6186264;23;20372;-82
2021/12/22 18:37:40;;;;;;;13.50;8.73;;;;;;;;;;6209733;23;20009;-81
2021/12/22 18:40:11;;;;;;;14.05;8.93;;;;;;;;;;6186449;23;20021;-80
2021/12/22 18:42:36;;;;;;;15.95;10.32;;;;;;;;;;6186077;23;20005;-82
2021/12/22 18:45:02;;;;;;;20.52;12.57;;;;;;;;;;6186352;23;20027;-88
2021/12/22 18:47:28;;;;;;;15.55;8.40;;;;;;;;;;6209649;23;20035;-81
2021/12/22 18:49:53;;;;;;;12.63;8.65;;;;;;;;;;6186378;23;20008;-85
2021/12/22 18:52:21;;;;;;;16.75;9.20;;;;;;;;;;6186758;23;20332;-83
2021/12/22 18:54:46;;;;;;;14.57;8.85;;;;;;;;;;6209848;23;20055;-83
2021/12/22 18:57:12;;;;;;;17.52;10.75;;;;;;;;;;6187296;23;20005;-82
2021/12/22 18:59:37;;;;;;;16.20;11.02;;;;;;;;;;6188365;23;20005;-84
2021/12/22 19:02:04;;;;;;;17.70;10.52;;;;;;;;;;6189127;23;20015;-83
2021/12/22 19:04:30;;;;;;;16.52;11.02;;;;;;;;;;6186197;23;20413;-84
2021/12/22 19:07:00;;;;;;;17.08;10.32;;;;;;;;;;6186574;23;20028;-83
2021/12/22 19:09:25;;;;;;;;;;;;;;;;;;6186834;23;20389;-84
2021/12/22 19:11:52;;;;;;;15.27;10.43;;;;;;;;;;6186605;23;19912;-85
2021/12/22 19:14:17;;;;;;;9.45;6.30;;;;;;;;;;6210144;23;20055;-82
2021/12/22 19:16:43;;;;;;;13.38;6.85;;;;;;;;;;6186622;23;20486;-87
2021/12/22 19:19:08;;;;;;;11.20;6.72;;;;;;;;;;6186212;23;20005;-87
2021/12/22 19:21:34;;;;;;;9.60;6.60;;;;;;;;;;6186847;23;20027;-88
2021/12/22 19:24:00;;;;;;;8.93;6.32;;;;;;;;;;6187186;23;20004;-89
2021/12/22 19:26:25;;;;;;;9.63;6.35;;;;;;;;;;6188149;23;20011;-87
2021/12/22 19:28:51;;;;;;;13.88;8.15;;;;;;;;;;6188484;23;20413;-89
2021/12/22 19:31:16;;;;;;;15.95;8.63;;;;;;;;;;6188201;23;20001;-91
2021/12/22 19:33:42;;;;;;;67.35;33.70;;;;;;;;;;6187110;23;20025;-90
2021/12/22 19:36:07;;;;;;;16.92;10.88;;;;;;;;;;6189505;23;20005;-88
2021/12/22 19:38:33;;;;;;;15.82;8.43;;;;;;;;;;6189317;23;20031;-87
2021/12/22 19:41:00;;;;;;;512.15;190.85;;;;;;;;;;6194490;23;20049;-89
2021/12/22 19:43:27;;;;;;;523.22;209.13;;;;;;;;;;6189092;23;20005;-88
2021/12/22 19:45:52;;;;;;;107.43;41.25;;;;;;;;;;6217080;23;20059;-86
2021/12/22 19:48:18;;;;;;;42.90;21.48;;;;;;;;;;6189652;23;20004;-89
2021/12/22 19:50:44;;;;;;;48.08;22.27;;;;;;;;;;6188964;23;20004;-83
2021/12/22 19:53:11;;;;;;;33.05;18.45;;;;;;;;;;6188935;23;20072;-86
2021/12/22 19:55:37;;;;;;;19.98;13.63;;;;;;;;;;6212545;23;20040;-90
2021/12/22 19:58:03;;;;;;;20.25;11.27;;;;;;;;;;6188889;23;20005;-89
2021/12/22 20:00:30;;;;;;;17.65;10.38;;;;;;;;;;6212670;23;20005;-91
2021/12/22 20:02:56;;;;;;;12.18;8.52;;;;;;;;;;6212525;23;20009;-89
2021/12/22 20:05:25;;;;;;;15.43;9.80;;;;;;;;;;6189094;23;20076;-90
2021/12/22 20:07:51;;;;;;;19.42;11.45;;;;;;;;;;6189221;23;20005;-89
2021/12/22 20:10:20;;;;;;;27.70;13.32;;;;;;;;;;6189107;23;20005;-88
2021/12/22 20:12:45;;;;;;;21.67;12.90;;;;;;;;;;6190002;23;20035;-88
2021/12/22 20:15:11;;;;;;;18.92;12.32;;;;;;;;;;6214330;23;20008;-88
2021/12/22 20:17:38;;;;;;;21.33;12.00;;;;;;;;;;6189491;23;20001;-87
2021/12/22 20:20:06;;;;;;;20.67;11.95;;;;;;;;;;6189498;23;20383;-93
2021/12/22 20:22:31;;;;;;;19.33;11.27;;;;;;;;;;6188801;23;20013;-88
2021/12/22 20:24:57;;;;;;;16.50;11.10;;;;;;;;;;6188849;23;20001;-89
2021/12/22 20:27:22;;;;;;;14.65;9.25;;;;;;;;;;6189146;23;20021;-90
2021/12/22 20:29:48;;;;;;;17.45;10.63;;;;;;;;;;6189028;23;20012;-90
2021/12/22 20:32:14;;;;;;;17.48;10.57;;;;;;;;;;6188992;23;20488;-90
2021/12/22 20:34:39;;;;;;;16.10;10.40;;;;;;;;;;6188848;23;20364;-89
2021/12/22 20:37:06;;;;;;;16.80;10.82;;;;;;;;;;6188290;23;20034;-88
2021/12/22 20:39:31;;;;;;;16.05;10.38;;;;;;;;;;6188959;23;20305;-88
2021/12/22 20:41:57;;;;;;;18.17;9.98;;;;;;;;;;6187946;23;20016;-86
2021/12/22 20:44:22;;;;;;;17.23;10.60;;;;;;;;;;6187750;23;20027;-88
2021/12/22 20:46:48;;;;;;;18.88;11.82;;;;;;;;;;6187031;23;20064;-88
2021/12/22 20:49:13;;;;;;;22.30;12.10;;;;;;;;;;6188237;23;20005;-90
2021/12/22 20:51:39;;;;;;;19.42;12.40;;;;;;;;;;6188626;23;20088;-85
2021/12/22 20:54:05;;;;;;;18.25;11.10;;;;;;;;;;6187970;23;20001;-88
2021/12/22 20:56:30;;;;;;;17.58;10.55;;;;;;;;;;6187655;23;20008;-94
2021/12/22 20:58:56;;;;;;;13.43;9.02;;;;;;;;;;6191918;23;20005;-93
2021/12/22 21:01:22;;;;;;;16.77;9.95;;;;;;;;;;6211288;23;20432;-82
2021/12/22 21:03:48;;;;;;;13.05;9.57;;;;;;;;;;6187442;23;20048;-90
2021/12/22 21:06:13;;;;;;;15.75;10.55;;;;;;;;;;6211046;23;20009;-87
2021/12/22 21:08:39;;;;;;;17.05;10.25;;;;;;;;;;6188094;23;20009;-95
2021/12/22 21:11:07;;;;;;;28.65;14.32;;;;;;;;;;6190811;23;20009;-88
2021/12/22 21:13:34;;;;;;;25.15;14.23;;;;;;;;;;6188367;23;20005;-93
2021/12/22 21:16:00;;;;;;;48.78;22.55;;;;;;;;;;6189515;23;20116;-96
2021/12/22 21:18:27;;;;;;;198.32;61.83;;;;;;;;;;6189573;23;20420;-87
2021/12/22 21:20:54;;;;;;;496.38;174.65;;;;;;;;;;6187316;23;20084;-86
2021/12/22 21:23:20;;;;;;;95.53;36.15;;;;;;;;;;6185710;23;20004;-87
2021/12/22 21:25:46;;;;;;;28.23;15.45;;;;;;;;;;6187098;23;20124;-87
2021/12/22 21:28:12;;;;;;;27.73;15.07;;;;;;;;;;6186802;23;20001;-85
2021/12/22 21:30:38;;;;;;;30.73;15.40;;;;;;;;;;6186977;23;20016;-88
2021/12/22 21:33:07;;;;;;;32.03;15.77;;;;;;;;;;6186784;23;20013;-87
2021/12/22 21:35:34;;;;;;;25.58;14.02;;;;;;;;;;6186994;23;20024;-88
2021/12/22 21:37:59;;;;;;;27.77;14.50;;;;;;;;;;6186960;23;20084;-87
2021/12/22 21:40:25;;;;;;;21.90;14.02;;;;;;;;;;6186665;23;20036;-89
2021/12/22 21:42:51;;;;;;;20.63;12.85;;;;;;;;;;6186624;23;20001;-88
2021/12/22 21:45:18;;;;;;;21.50;13.10;;;;;;;;;;6187070;23;20432;-88
2021/12/22 21:47:44;;;;;;;24.33;14.38;;;;;;;;;;6186651;23;20180;-87
2021/12/22 21:50:11;;;;;;;23.20;13.13;;;;;;;;;;6186804;23;20398;-87
2021/12/22 21:52:37;;;;;;;21.42;13.75;;;;;;;;;;6186669;23;20005;-88
2021/12/22 21:55:04;;;;;;;20.40;12.90;;;;;;;;;;6186849;23;20333;-88
2021/12/22 21:57:31;;;;;;;23.05;13.85;;;;;;;;;;6186565;23;20025;-88
2021/12/22 21:59:57;;;;;;;23.90;15.45;;;;;;;;;;6186744;23;20035;-87
2021/12/22 22:02:22;;;;;;;21.90;14.02;;;;;;;;;;6186587;23;20035;-87
2021/12/22 22:04:48;;;;;;;22.08;13.88;;;;;;;;;;6186755;23;20005;-88
2021/12/22 22:07:14;;;;;;;19.83;13.27;;;;;;;;;;6210093;23;20015;-86
2021/12/22 22:09:40;;;;;;;21.08;13.48;;;;;;;;;;6186904;23;20056;-88
2021/12/22 22:12:06;;;;;;;16.38;9.80;;;;;;;;;;6186573;23;20002;-88
2021/12/22 22:14:32;;;;;;;15.43;9.43;;;;;;;;;;6210317;23;20337;-87
2021/12/22 22:16:58;;;;;;;14.60;9.60;;;;;;;;;;6186662;23;20001;-87
2021/12/22 22:19:23;;;;;;;15.18;9.95;;;;;;;;;;6186840;23;20516;-88
2021/12/22 22:21:52;;;;;;;15.18;7.93;;;;;;;;;;6186818;23;20005;-88
2021/12/22 22:24:18;;;;;;;15.47;8.30;;;;;;;;;;6186987;23;20005;-87
2021/12/22 22:26:44;;;;;;;16.65;9.63;;;;;;;;;;6186402;23;20455;-87
2021/12/22 22:29:11;;;;;;;17.92;10.00;;;;;;;;;;6186721;23;20001;-88
2021/12/22 22:31:37;;;;;;;18.55;10.95;;;;;;;;;;6186835;23;20077;-88
2021/12/22 22:34:03;;;;;;;15.25;10.05;;;;;;;;;;6186339;23;20424;-88
2021/12/22 22:36:29;;;;;;;15.77;10.35;;;;;;;;;;6186629;23;20032;-89
2021/12/22 22:38:54;;;;;;;16.63;10.73;;;;;;;;;;6186468;23;20020;-87
2021/12/22 22:41:19;;;;;;;17.25;10.18;;;;;;;;;;6186353;23;20101;-88
2021/12/22 22:43:45;;;;;;;19.60;10.77;;;;;;;;;;6186113;23;20009;-87
2021/12/22 22:46:11;;;;;;;18.10;10.70;;;;;;;;;;6209850;23;20098;-87
2021/12/22 22:48:36;;;;;;;16.73;10.52;;;;;;;;;;6186444;23;20005;-88
2021/12/22 22:51:02;;;;;;;16.65;10.35;;;;;;;;;;6186368;23;20004;-88
2021/12/22 22:53:27;;;;;;;17.63;11.07;;;;;;;;;;6186213;23;20048;-87
2021/12/22 22:55:53;;;;;;;17.05;12.27;;;;;;;;;;6186293;23;20441;-87
2021/12/22 22:58:18;;;;;;;19.63;11.00;;;;;;;;;;6186325;23;20417;-87
2021/12/22 23:00:45;;;;;;;19.83;11.55;;;;;;;;;;6186189;23;20012;-88
2021/12/22 23:03:11;;;;;;;19.40;10.88;;;;;;;;;;6185969;23;20071;-88
2021/12/22 23:05:37;;;;;;;20.45;11.77;;;;;;;;;;6209755;23;20005;-86
2021/12/22 23:08:04;;;;;;;17.65;11.73;;;;;;;;;;6186319;23;20028;-88
2021/12/22 23:10:30;;;;;;;23.08;12.85;;;;;;;;;;6185969;23;19997;-88
2021/12/22 23:12:56;;;;;;;20.10;11.88;;;;;;;;;;6186467;23;20005;-88
2021/12/22 23:15:22;;;;;;;19.70;11.90;;;;;;;;;;6186441;23;20001;-86
2021/12/22 23:18:06;;;;;;;21.90;13.63;;;;;;;;;;6186032;23;20011;-87
2021/12/22 23:20:35;;;;;;;18.98;12.50;;;;;;;;;;6186285;23;19997;-86
2021/12/22 23:23:00;;;;;;;19.02;12.00;;;;;;;;;;6186014;23;20429;-86
2021/12/22 23:25:26;;;;;;;17.58;12.05;;;;;;;;;;6186505;23;20008;-87
2021/12/22 23:27:52;;;;;;;20.20;12.45;;;;;;;;;;6209739;23;20001;-88
2021/12/22 23:30:17;;;;;;;21.10;11.95;;;;;;;;;;6186079;23;20048;-88